Time;durP1;ratioP1;P1;durP2;ratioP2;P2;SDS_P1;SDS_P2;PMS_P1;PMS_P2;Temp;Humidity;BMP_temperature;BMP_pressure;BME280_temperature;BME280_humidity;BME280_pressure;Samples;Min_cycle;Max_cycle;Signal;HPM_P1;HPM_P2
2021/10/02 00:36:32;;;;;;;12.43;7.97;;;;;;;9.20;87.93;98578.13;1729606;82;21051;-74
2021/10/02 00:46:53;;;;;;;12.28;7.80;;;;;;;9.36;87.04;98577.02;1746968;82;21070;-74
2021/10/02 00:49:20;;;;;;;13.10;8.20;;;;;;;9.35;87.13;98576.56;1746967;82;20978;-74
2021/10/02 00:51:46;;;;;;;14.15;9.25;;;;;;;9.31;87.23;98570.04;1768628;81;20998;-74
2021/10/02 00:54:13;;;;;;;13.38;8.53;;;;;;;9.31;86.64;98570.04;1775310;81;21400;-74
2021/10/02 00:56:39;;;;;;;13.45;8.18;;;;;;;9.31;86.53;98567.39;1777528;81;21011;-74
2021/10/02 00:59:06;;;;;;;13.88;8.50;;;;;;;9.29;87.34;98566.52;1777905;81;21023;-74
2021/10/02 01:01:50;;;;;;;14.50;7.97;;;;;;;9.27;86.77;98564.37;1777278;80;21420;-74
2021/10/02 01:04:28;;;;;;;13.32;8.08;;;;;;;9.26;86.44;98561.30;1717648;83;21026;-74
2021/10/02 01:07:24;;;;;;;12.80;8.15;;;;;;;9.23;87.03;98562.22;1750905;81;21057;-74
2021/10/02 01:10:18;;;;;;;15.20;7.95;;;;;;;9.22;86.88;98566.63;1717404;83;22268;-75
2021/10/02 01:13:10;;;;;;;12.78;7.87;;;;;;;9.23;86.80;98555.14;1717100;83;21042;-75
2021/10/02 01:16:03;;;;;;;14.60;8.38;;;;;;;9.28;86.27;98554.20;1754757;80;21026;-75
2021/10/02 01:18:46;;;;;;;11.03;8.05;;;;;;;9.31;86.23;98552.41;1723810;82;20999;-74
2021/10/02 01:21:48;;;;;;;11.45;7.90;;;;;;;9.35;86.06;98549.27;1744475;82;21030;-73
2021/10/02 01:24:35;;;;;;;14.50;8.23;;;;;;;9.38;85.93;98548.76;1739448;82;21467;-74
2021/10/02 01:27:19;;;;;;;13.88;7.67;;;;;;;9.42;86.17;98547.40;1739274;82;21057;-75
2021/10/02 01:29:46;;;;;;;12.28;7.70;;;;;;;9.48;86.30;98545.50;1739260;82;21042;-75
2021/10/02 01:32:24;;;;;;;13.28;7.67;;;;;;;9.54;85.93;98544.53;1737269;82;20987;-74
2021/10/02 01:47:10;;;;;;;15.08;8.23;;;;;;;9.63;85.58;98542.17;1720247;81;21016;-74
2021/10/02 01:48:20;;;;;;;13.68;6.75;;;;;;;9.69;85.55;98539.88;1761743;81;21004;-76
2021/10/02 01:50:51;;;;;;;12.40;6.65;;;;;;;9.70;85.37;98539.86;1760953;81;21040;-75
2021/10/02 01:53:19;;;;;;;11.78;7.47;;;;;;;9.70;85.43;98545.16;1761135;81;21008;-77
2021/10/02 01:55:49;;;;;;;12.33;7.65;;;;;;;9.72;85.24;98542.49;1761603;81;21095;-74
2021/10/02 01:58:17;;;;;;;13.72;7.60;;;;;;;9.72;85.10;98543.81;1749093;81;21469;-74
2021/10/02 02:00:49;;;;;;;12.07;7.80;;;;;;;9.71;84.89;98542.92;1761833;81;20968;-75
2021/10/02 02:03:21;;;;;;;12.20;7.83;;;;;;;9.74;84.93;98545.53;1729208;82;21024;-75
2021/10/02 02:05:49;;;;;;;12.80;7.50;;;;;;;9.82;85.39;98548.05;1768473;79;20976;-75
2021/10/02 02:08:42;;;;;;;16.85;9.03;;;;;;;9.86;84.97;98545.77;1748235;81;21042;-75
2021/10/02 02:11:28;;;;;;;14.18;8.10;;;;;;;9.93;85.47;98544.33;1714795;82;21093;-76
2021/10/02 02:13:44;;;;;;;13.18;7.70;;;;;;;9.99;85.32;98545.09;1769135;80;21035;-74
2021/10/02 02:16:12;;;;;;;15.40;8.35;;;;;;;10.09;85.38;98544.45;1777195;81;21730;-76
2021/10/02 02:18:40;;;;;;;11.20;7.55;;;;;;;10.16;85.40;98547.87;1761795;81;20998;-76
2021/10/02 02:21:13;;;;;;;12.30;7.42;;;;;;;10.23;85.56;98540.24;1747185;82;21473;-76
2021/10/02 02:23:40;;;;;;;14.68;7.85;;;;;;;10.31;85.71;98536.11;1744571;82;21463;-76
2021/10/02 02:26:08;;;;;;;13.93;9.48;;;;;;;10.39;85.69;98535.48;1745075;81;21483;-77
2021/10/02 02:28:38;;;;;;;15.72;8.73;;;;;;;10.40;85.39;98528.42;1740960;81;21097;-77
2021/10/02 02:31:07;;;;;;;20.25;11.55;;;;;;;10.44;85.70;98534.12;1718747;82;21433;-77
2021/10/02 02:33:35;;;;;;;16.93;10.00;;;;;;;10.47;85.95;98526.56;1715086;83;20977;-78
2021/10/02 02:36:07;;;;;;;19.67;10.93;;;;;;;10.43;86.26;98533.67;1745155;81;20990;-77
2021/10/02 02:38:34;;;;;;;18.75;11.53;;;;;;;10.42;85.95;98523.95;1764896;80;20964;-77
2021/10/02 02:41:01;;;;;;;17.67;11.48;;;;;;;10.41;85.62;98531.48;1765080;80;21015;-77
2021/10/02 02:43:34;;;;;;;22.52;12.03;;;;;;;10.31;86.12;98532.14;1765183;80;21081;-76
2021/10/02 02:46:16;;;;;;;20.35;10.82;;;;;;;10.26;86.35;98524.27;1764737;81;21035;-76
2021/10/02 02:49:05;;;;;;;17.10;11.70;;;;;;;10.27;85.80;98522.50;1756189;81;20986;-77
2021/10/02 02:52:01;;;;;;;20.68;9.75;;;;;;;10.21;86.88;98518.66;1744915;82;21009;-75
2021/10/02 02:54:33;;;;;;;;;;;;;;;10.13;87.64;98520.14;1742756;82;21073;-75
2021/10/02 02:57:05;;;;;;;19.60;11.00;;;;;;;10.07;87.14;98522.87;1745098;82;20146;-77
2021/10/02 02:59:37;;;;;;;20.68;11.70;;;;;;;10.04;86.81;98526.45;1733306;81;21028;-76
2021/10/02 03:02:06;;;;;;;24.63;11.45;;;;;;;10.03;86.22;98528.25;1766303;81;20963;-76
2021/10/02 03:04:36;;;;;;;22.62;12.33;;;;;;;10.00;87.10;98527.41;1773716;81;21042;-75
2021/10/02 03:07:06;;;;;;;20.08;10.82;;;;;;;9.96;86.69;98525.75;1774947;81;21050;-75
2021/10/02 03:09:37;;;;;;;21.48;11.93;;;;;;;9.94;87.04;98525.77;1774964;81;21348;-76
2021/10/02 03:12:04;;;;;;;21.15;12.35;;;;;;;9.93;87.31;98529.77;1771093;80;21066;-75
2021/10/02 03:14:32;;;;;;;17.10;11.00;;;;;;;9.90;86.37;98523.64;1714798;84;21475;-75
2021/10/02 03:17:00;;;;;;;19.95;12.20;;;;;;;9.90;86.76;98520.99;1761908;81;21057;-76
2021/10/02 03:19:29;;;;;;;22.82;12.45;;;;;;;9.94;87.45;98524.89;1774951;81;21498;-76
2021/10/02 03:21:56;;;;;;;22.48;13.22;;;;;;;9.94;86.85;98516.94;1752285;81;21018;-76
2021/10/02 03:24:24;;;;;;;22.77;12.35;;;;;;;9.97;86.86;98523.05;1741905;80;21493;-76
2021/10/02 03:26:53;;;;;;;24.12;13.43;;;;;;;9.93;87.73;98520.50;1719511;81;21148;-76
2021/10/02 03:29:20;;;;;;;23.98;12.90;;;;;;;9.93;87.48;98516.09;1750775;80;21379;-75
2021/10/02 03:31:48;;;;;;;20.57;12.65;;;;;;;9.92;87.28;98515.64;1749938;82;21051;-76
2021/10/02 03:34:17;;;;;;;22.22;12.33;;;;;;;9.90;87.89;98522.75;1737614;81;21030;-76
2021/10/02 03:36:45;;;;;;;20.90;12.73;;;;;;;9.87;87.34;98522.36;1765838;81;20993;-76
2021/10/02 03:39:11;;;;;;;25.12;14.10;;;;;;;9.87;88.15;98517.50;1762306;81;21004;-76
2021/10/02 03:41:38;;;;;;;21.17;12.25;;;;;;;9.83;86.95;98523.75;1753412;81;20961;-76
2021/10/02 03:44:05;;;;;;;20.88;12.78;;;;;;;9.80;88.51;98516.73;1753696;81;21398;-75
2021/10/02 03:46:31;;;;;;;21.10;11.57;;;;;;;9.74;88.11;98520.39;1753466;81;21055;-76
2021/10/02 03:48:58;;;;;;;19.85;12.13;;;;;;;9.69;88.99;98525.33;1726695;81;21024;-76
2021/10/02 03:51:24;;;;;;;21.80;12.43;;;;;;;9.72;87.35;98523.96;1713211;82;21072;-76
2021/10/02 03:53:51;;;;;;;26.52;14.03;;;;;;;9.76;87.25;98523.02;1732567;81;20990;-76
2021/10/02 03:56:17;;;;;;;21.00;11.63;;;;;;;9.81;87.67;98528.21;1738968;82;21022;-75
2021/10/02 03:58:44;;;;;;;18.70;11.25;;;;;;;9.80;88.85;98526.47;1750438;82;20985;-76
2021/10/02 04:01:10;;;;;;;18.48;10.85;;;;;;;9.81;88.43;98525.56;1735823;82;21019;-75
2021/10/02 04:03:37;;;;;;;15.70;9.78;;;;;;;9.75;88.89;98522.13;1737627;80;21486;-76
2021/10/02 04:06:03;;;;;;;19.05;11.15;;;;;;;9.71;89.36;98527.05;1717021;82;20993;-76
2021/10/02 04:08:29;;;;;;;17.32;10.58;;;;;;;9.72;88.82;98527.46;1734101;83;21049;-76
2021/10/02 04:10:56;;;;;;;16.55;10.82;;;;;;;9.70;89.53;98529.28;1741024;80;21498;-75
2021/10/02 04:13:22;;;;;;;21.52;10.78;;;;;;;9.76;89.27;98526.52;1761773;80;20983;-75
2021/10/02 04:15:49;;;;;;;17.77;10.85;;;;;;;9.85;88.67;98531.23;1744686;82;20973;-75
2021/10/02 04:18:15;;;;;;;18.48;10.32;;;;;;;9.91;88.51;98531.11;1749969;81;21515;-75
2021/10/02 04:20:42;;;;;;;16.48;10.72;;;;;;;9.95;88.32;98530.16;1760747;81;21034;-76
2021/10/02 04:23:08;;;;;;;19.45;10.32;;;;;;;9.98;88.15;98535.41;1775770;81;21042;-74
2021/10/02 04:25:36;;;;;;;15.88;10.55;;;;;;;10.01;88.08;98527.86;1769449;80;21048;-74
2021/10/02 04:28:05;;;;;;;15.43;10.13;;;;;;;10.01;87.92;98529.19;1745223;82;21002;-74
2021/10/02 04:30:35;;;;;;;20.00;11.28;;;;;;;9.99;87.97;98530.97;1751670;82;21100;-75
2021/10/02 04:33:02;;;;;;;15.63;10.80;;;;;;;9.95;87.78;98531.92;1744679;82;21414;-74
2021/10/02 04:35:30;;;;;;;17.45;10.28;;;;;;;9.95;87.61;98535.89;1754362;81;21040;-74
2021/10/02 04:37:57;;;;;;;19.73;11.45;;;;;;;9.89;87.52;98530.28;1737799;82;21093;-74
2021/10/02 04:40:24;;;;;;;16.15;10.13;;;;;;;9.86;87.32;98530.33;1744516;82;21103;-74
2021/10/02 04:42:50;;;;;;;14.78;9.95;;;;;;;9.86;87.55;98539.16;1754439;80;22050;-75
2021/10/02 04:45:18;;;;;;;15.18;9.13;;;;;;;9.91;87.15;98540.38;1752401;82;21034;-74
2021/10/02 04:47:46;;;;;;;14.68;9.63;;;;;;;9.89;87.29;98536.43;1744614;82;21076;-74
2021/10/02 04:50:14;;;;;;;16.25;9.85;;;;;;;9.88;87.12;98543.06;1744823;82;21033;-74
2021/10/02 04:52:40;;;;;;;15.58;9.68;;;;;;;9.86;86.93;98544.88;1746959;82;21026;-74
2021/10/02 04:55:08;;;;;;;14.85;9.35;;;;;;;9.82;86.66;98537.45;1757806;80;21530;-74
2021/10/02 04:57:35;;;;;;;17.23;9.35;;;;;;;9.76;86.61;98540.22;1749064;82;21559;-74
2021/10/02 05:00:04;;;;;;;17.52;9.60;;;;;;;9.75;86.54;98541.09;1753228;82;21023;-75
2021/10/02 05:02:30;;;;;;;13.75;8.73;;;;;;;9.70;86.23;98540.30;1729445;82;21515;-75
2021/10/02 05:04:56;;;;;;;17.90;9.58;;;;;;;9.64;86.41;98542.16;1720788;83;20976;-74
2021/10/02 05:07:23;;;;;;;15.88;9.50;;;;;;;9.57;86.93;98543.17;1748432;82;21458;-74
2021/10/02 05:09:50;;;;;;;16.77;10.25;;;;;;;9.51;86.25;98544.61;1748442;81;20974;-74
2021/10/02 05:12:16;;;;;;;16.37;10.35;;;;;;;9.42;87.24;98544.28;1752531;81;21005;-74
2021/10/02 05:14:42;;;;;;;15.48;9.58;;;;;;;9.40;86.59;98547.85;1746164;82;21033;-74
2021/10/02 05:17:13;;;;;;;17.98;10.05;;;;;;;9.39;86.36;98549.64;1746370;81;21088;-75
2021/10/02 05:19:40;;;;;;;15.72;9.70;;;;;;;9.37;86.52;98549.66;1778084;80;21047;-74
2021/10/02 05:22:07;;;;;;;16.82;9.48;;;;;;;9.34;87.46;98544.87;1751331;82;21491;-74
2021/10/02 05:24:37;;;;;;;18.15;10.30;;;;;;;9.31;87.28;98537.86;1744318;82;21022;-75
2021/10/02 05:27:11;;;;;;;15.65;10.88;;;;;;;9.35;87.33;98548.80;1733943;81;21007;-74
2021/10/02 05:29:39;;;;;;;;;;;;;;;9.40;86.64;98550.06;1717894;81;21078;-74
2021/10/02 05:32:09;;;;;;;19.50;11.25;;;;;;;9.41;87.26;98548.27;1714801;83;20145;-74
2021/10/02 05:34:35;;;;;;;20.12;11.80;;;;;;;9.36;87.56;98554.97;1718101;80;21022;-75
2021/10/02 05:37:02;;;;;;;24.05;11.43;;;;;;;9.35;86.72;98550.58;1751310;81;21557;-74
2021/10/02 05:39:29;;;;;;;17.37;10.58;;;;;;;9.35;86.51;98553.23;1780119;80;20988;-74
2021/10/02 05:41:56;;;;;;;19.55;11.53;;;;;;;9.41;87.47;98552.23;1756414;82;21012;-74
2021/10/02 05:44:23;;;;;;;16.30;10.38;;;;;;;9.48;86.61;98556.08;1750037;82;21114;-74
2021/10/02 05:46:50;;;;;;;20.08;11.95;;;;;;;9.57;86.60;98559.05;1748498;82;20964;-74
2021/10/02 05:49:16;;;;;;;22.65;13.80;;;;;;;9.66;87.03;98555.37;1753700;80;21015;-74
2021/10/02 05:51:43;;;;;;;20.43;13.38;;;;;;;9.63;86.40;98564.23;1721435;82;21414;-74
2021/10/02 05:54:10;;;;;;;20.12;11.05;;;;;;;9.70;86.49;98566.33;1733724;83;21038;-74
2021/10/02 05:56:38;;;;;;;16.70;11.03;;;;;;;9.80;86.59;98564.38;1749874;81;20997;-74
2021/10/02 05:59:04;;;;;;;16.15;9.70;;;;;;;9.87;86.83;98569.13;1756220;81;21050;-74
2021/10/02 06:01:31;;;;;;;18.20;10.18;;;;;;;9.86;86.60;98562.98;1738392;81;21020;-74
2021/10/02 06:03:58;;;;;;;23.90;11.90;;;;;;;9.97;86.61;98565.41;1735132;81;21042;-74
2021/10/02 06:06:24;;;;;;;24.15;11.68;;;;;;;10.12;86.71;98568.25;1749894;82;21422;-75
2021/10/02 06:08:51;;;;;;;25.15;13.35;;;;;;;10.23;86.31;98565.84;1735836;83;21018;-74
2021/10/02 06:11:18;;;;;;;24.55;14.60;;;;;;;10.30;85.91;98562.19;1769224;80;21109;-74
2021/10/02 06:13:47;;;;;;;32.73;16.73;;;;;;;10.40;85.60;98560.22;1736981;81;20978;-74
2021/10/02 06:16:16;;;;;;;30.72;18.02;;;;;;;10.45;82.99;98571.63;1749807;82;20982;-75
2021/10/02 06:18:44;;;;;;;26.93;16.95;;;;;;;10.35;83.66;98567.39;1749888;82;21093;-75
2021/10/02 06:21:12;;;;;;;30.32;17.57;;;;;;;10.36;83.86;98573.09;1753001;81;21401;-75
2021/10/02 06:23:39;;;;;;;33.83;18.52;;;;;;;10.41;83.91;98572.12;1774194;81;21026;-75
2021/10/02 06:26:06;;;;;;;32.33;18.48;;;;;;;10.49;83.31;98573.77;1750382;82;21031;-74
2021/10/02 06:28:32;;;;;;;30.88;18.90;;;;;;;10.52;83.11;98572.39;1756627;82;21069;-75
2021/10/02 06:30:59;;;;;;;32.63;18.70;;;;;;;10.54;83.10;98573.22;1748049;81;20994;-75
2021/10/02 06:33:27;;;;;;;30.80;18.27;;;;;;;10.47;82.45;98572.94;1752419;82;21423;-75
2021/10/02 06:35:54;;;;;;;30.85;18.55;;;;;;;10.47;82.53;98582.20;1759354;81;21473;-75
2021/10/02 06:38:21;;;;;;;32.23;18.60;;;;;;;10.41;82.03;98572.56;1750277;81;20972;-75
2021/10/02 06:40:48;;;;;;;27.95;15.83;;;;;;;10.39;82.07;98574.38;1750216;81;21053;-75
2021/10/02 06:43:15;;;;;;;31.27;17.35;;;;;;;10.38;82.03;98568.19;1765524;80;21016;-75
2021/10/02 06:45:42;;;;;;;30.85;15.80;;;;;;;10.39;81.84;98567.28;1776763;81;21065;-75
2021/10/02 06:48:11;;;;;;;33.13;17.87;;;;;;;10.38;81.77;98570.84;1777975;81;21416;-75
2021/10/02 06:50:37;;;;;;;30.48;16.57;;;;;;;10.29;81.30;98569.69;1768365;81;21030;-75
2021/10/02 06:53:04;;;;;;;30.23;18.25;;;;;;;10.21;81.48;98571.16;1762709;80;21479;-75
2021/10/02 06:55:31;;;;;;;34.18;17.87;;;;;;;10.16;81.44;98575.23;1756523;82;20969;-74
2021/10/02 06:57:57;;;;;;;30.15;16.75;;;;;;;10.14;81.69;98577.49;1756547;82;20989;-74
2021/10/02 07:00:24;;;;;;;30.32;17.65;;;;;;;10.14;81.73;98566.43;1753307;81;20971;-76
2021/10/02 07:02:50;;;;;;;29.00;17.62;;;;;;;10.13;81.67;98566.48;1738836;82;21042;-73
2021/10/02 07:05:17;;;;;;;35.45;20.77;;;;;;;10.12;81.56;98570.01;1768262;80;20959;-74
2021/10/02 07:07:44;;;;;;;36.20;18.50;;;;;;;10.10;81.61;98560.80;1756550;82;20972;-74
2021/10/02 07:10:12;;;;;;;28.23;16.42;;;;;;;10.11;81.68;98565.18;1756519;81;21004;-74
2021/10/02 07:12:38;;;;;;;33.33;17.40;;;;;;;10.10;81.59;98567.41;1777359;81;20971;-74
2021/10/02 07:15:07;;;;;;;31.62;19.23;;;;;;;10.09;81.25;98566.11;1777495;81;22135;-74
2021/10/02 07:17:34;;;;;;;29.27;17.80;;;;;;;10.12;81.38;98557.66;1757588;81;21034;-74
2021/10/02 07:20:01;;;;;;;31.35;17.77;;;;;;;10.16;81.56;98555.81;1752593;80;21066;-74
2021/10/02 07:22:28;;;;;;;30.52;16.62;;;;;;;10.21;80.80;98559.25;1775966;81;21010;-74
2021/10/02 07:24:54;;;;;;;28.77;16.55;;;;;;;10.24;81.06;98561.84;1750992;81;21011;-74
2021/10/02 07:27:21;;;;;;;27.30;16.55;;;;;;;10.31;80.94;98548.03;1776744;81;21011;-74
2021/10/02 07:29:47;;;;;;;25.85;14.73;;;;;;;10.37;80.71;98549.23;1756510;81;20990;-74
2021/10/02 07:32:13;;;;;;;20.12;12.70;;;;;;;10.43;80.40;98546.92;1780788;80;20985;-74
2021/10/02 07:34:40;;;;;;;27.00;13.22;;;;;;;10.51;80.02;98546.80;1776783;81;21057;-74
2021/10/02 07:37:06;;;;;;;18.70;11.93;;;;;;;10.58;79.80;98548.41;1770800;81;21014;-74
2021/10/02 07:39:33;;;;;;;16.57;10.48;;;;;;;10.64;77.65;98548.73;1752603;81;21117;-74
2021/10/02 07:42:00;;;;;;;17.30;10.30;;;;;;;10.69;78.96;98546.86;1776863;80;20968;-74
2021/10/02 07:44:30;;;;;;;15.90;10.00;;;;;;;10.74;77.51;98549.40;1716423;84;21530;-74
2021/10/02 07:46:58;;;;;;;17.48;11.25;;;;;;;10.78;78.19;98545.34;1753858;80;20989;-75
2021/10/02 07:49:29;;;;;;;19.30;12.28;;;;;;;10.85;78.18;98542.11;1709261;83;21415;-74
2021/10/02 07:51:57;;;;;;;18.23;12.07;;;;;;;10.92;78.18;98540.20;1736885;81;21010;-75
2021/10/02 07:54:26;;;;;;;20.57;11.38;;;;;;;10.98;77.90;98541.38;1776462;81;20991;-74
2021/10/02 07:56:55;;;;;;;19.85;12.25;;;;;;;11.02;77.40;98546.16;1752031;81;20990;-74
2021/10/02 07:59:22;;;;;;;18.48;10.68;;;;;;;11.06;77.09;98539.88;1727264;82;20961;-74
2021/10/02 08:01:49;;;;;;;19.87;10.48;;;;;;;11.13;77.27;98540.61;1760661;80;20963;-75
2021/10/02 08:04:16;;;;;;;17.82;10.88;;;;;;;11.18;76.38;98538.25;1766343;81;21034;-74
2021/10/02 08:06:43;;;;;;;14.38;10.18;;;;;;;11.26;76.22;98546.50;1726765;82;21050;-74
2021/10/02 08:09:11;;;;;;;15.18;10.63;;;;;;;11.30;76.27;98539.74;1748923;81;21084;-74
2021/10/02 08:11:38;;;;;;;16.62;10.50;;;;;;;11.35;75.80;98549.80;1757851;80;21009;-74
2021/10/02 08:14:07;;;;;;;86.22;50.25;;;;;;;11.40;74.60;98547.05;1776710;81;21002;-74
2021/10/02 08:16:36;;;;;;;23.45;13.75;;;;;;;11.46;74.74;98540.73;1776623;81;21011;-74
2021/10/02 08:19:05;;;;;;;17.37;10.82;;;;;;;11.55;74.17;98531.66;1776267;81;21017;-74
2021/10/02 08:21:33;;;;;;;13.48;9.33;;;;;;;11.63;74.84;98535.00;1702207;82;21054;-74
2021/10/02 08:24:03;;;;;;;15.68;10.08;;;;;;;11.66;74.41;98536.23;1765926;81;21066;-74
2021/10/02 08:26:31;;;;;;;13.70;9.15;;;;;;;11.71;74.49;98535.66;1766588;81;21393;-75
2021/10/02 08:29:00;;;;;;;13.68;8.70;;;;;;;11.76;74.25;98523.61;1766480;81;20986;-74
2021/10/02 08:31:26;;;;;;;16.15;9.90;;;;;;;11.82;72.92;98523.88;1761049;81;20985;-74
2021/10/02 08:33:53;;;;;;;12.75;9.50;;;;;;;11.88;73.72;98527.73;1766352;81;20979;-74
2021/10/02 08:36:20;;;;;;;15.28;10.23;;;;;;;11.93;72.70;98519.18;1766223;81;21019;-74
2021/10/02 08:38:47;;;;;;;12.68;8.35;;;;;;;11.98;72.99;98512.41;1750768;82;20991;-74
2021/10/02 08:41:18;;;;;;;13.38;8.35;;;;;;;12.02;72.79;98503.44;1756181;81;21053;-75
2021/10/02 08:43:49;;;;;;;13.85;8.50;;;;;;;12.09;72.76;98502.38;1750743;81;21000;-74
2021/10/02 08:46:17;;;;;;;14.53;8.60;;;;;;;12.17;72.27;98508.84;1750390;82;21484;-74
2021/10/02 08:49:14;;;;;;;16.30;9.48;;;;;;;12.25;72.17;98507.30;1756583;82;20989;-74
2021/10/02 08:51:46;;;;;;;15.50;8.48;;;;;;;12.33;71.72;98502.61;1744830;81;20979;-74
2021/10/02 08:54:10;;;;;;;12.37;8.75;;;;;;;12.43;71.71;98501.91;1777850;81;20986;-74
2021/10/02 08:56:39;;;;;;;14.13;8.38;;;;;;;12.51;71.22;98498.54;1777967;81;21470;-74
2021/10/02 08:59:05;;;;;;;14.87;7.85;;;;;;;12.60;71.74;98493.43;1777801;81;21002;-75
2021/10/02 09:01:32;;;;;;;14.45;8.70;;;;;;;12.68;70.83;98492.72;1755634;81;21533;-75
2021/10/02 09:03:59;;;;;;;14.43;7.92;;;;;;;12.76;70.00;98491.19;1750024;82;21043;-75
2021/10/02 09:06:25;;;;;;;11.15;8.10;;;;;;;12.89;70.48;98486.80;1756571;81;21028;-75
2021/10/02 09:08:52;;;;;;;13.60;8.05;;;;;;;12.99;69.72;98482.93;1756758;82;21024;-75
2021/10/02 09:11:18;;;;;;;11.97;7.45;;;;;;;13.07;68.54;98483.56;1744815;81;20991;-75
2021/10/02 09:13:45;;;;;;;11.25;7.97;;;;;;;13.15;68.38;98481.98;1741256;82;20990;-75
2021/10/02 09:16:12;;;;;;;13.48;7.97;;;;;;;13.23;67.69;98479.08;1756534;81;21008;-75
2021/10/02 09:18:38;;;;;;;14.95;9.40;;;;;;;13.29;66.61;98468.22;1756450;81;21374;-75
2021/10/02 09:21:07;;;;;;;10.78;8.30;;;;;;;13.41;67.56;98466.09;1746810;81;21026;-75
2021/10/02 09:23:43;;;;;;;16.50;7.87;;;;;;;13.50;66.42;98460.48;1741173;82;21071;-75
2021/10/02 09:26:11;;;;;;;10.85;6.97;;;;;;;13.62;66.43;98463.16;1750273;81;21402;-75
2021/10/02 09:28:45;;;;;;;10.88;6.75;;;;;;;13.72;65.71;98459.73;1750299;82;21063;-75
2021/10/02 09:31:16;;;;;;;;;;;;;;;13.82;65.53;98459.81;1748705;81;20999;-75
2021/10/02 09:33:48;;;;;;;12.45;7.08;;;;;;;13.91;65.02;98457.27;1738741;82;20116;-75
2021/10/02 09:36:23;;;;;;;11.35;7.12;;;;;;;13.98;64.17;98447.27;1738864;82;20982;-76
2021/10/02 09:38:53;;;;;;;10.03;7.08;;;;;;;14.07;63.82;98447.42;1747364;82;20993;-75
2021/10/02 09:41:22;;;;;;;11.30;6.78;;;;;;;14.18;63.57;98444.34;1745176;80;21380;-75
2021/10/02 09:43:55;;;;;;;10.32;6.72;;;;;;;14.26;63.05;98447.59;1738681;82;21010;-75
2021/10/02 09:46:34;;;;;;;9.90;6.53;;;;;;;14.34;62.80;98444.19;1741159;82;21008;-75
2021/10/02 09:49:01;;;;;;;11.57;7.00;;;;;;;14.43;62.23;98441.62;1756565;81;20985;-75
2021/10/02 09:51:43;;;;;;;12.23;8.40;;;;;;;14.54;61.36;98436.34;1744475;81;21006;-76
2021/10/02 09:54:39;;;;;;;16.65;7.15;;;;;;;14.64;60.92;98433.27;1708994;84;21447;-76
2021/10/02 09:57:12;;;;;;;12.20;6.47;;;;;;;14.76;58.78;98431.95;1739050;82;21017;-76
2021/10/02 09:59:39;;;;;;;12.77;6.57;;;;;;;14.95;61.04;98424.99;1739654;81;21044;-75
2021/10/02 10:02:19;;;;;;;9.85;5.50;;;;;;;15.06;58.85;98425.41;1721286;81;21004;-75
2021/10/02 10:04:54;;;;;;;11.75;5.65;;;;;;;15.18;58.94;98419.58;1721887;82;21010;-76
2021/10/02 10:07:23;;;;;;;13.43;6.78;;;;;;;15.31;58.55;98416.37;1746143;82;20979;-76
2021/10/02 10:10:07;;;;;;;14.10;6.75;;;;;;;15.43;58.15;98406.98;1745964;81;21449;-75
2021/10/02 10:12:36;;;;;;;9.55;6.72;;;;;;;15.57;58.29;98404.58;1777090;81;20991;-75
2021/10/02 10:15:06;;;;;;;9.65;6.50;;;;;;;15.69;56.73;98399.17;1747258;81;21029;-75
2021/10/02 10:17:33;;;;;;;11.68;5.83;;;;;;;15.85;56.30;98403.83;1747301;82;20998;-76
2021/10/02 10:20:09;;;;;;;10.03;5.78;;;;;;;15.94;55.09;98399.44;1745872;81;21076;-76
2021/10/02 10:22:37;;;;;;;9.50;6.40;;;;;;;16.05;55.51;98397.62;1743403;82;21073;-76
2021/10/02 10:25:09;;;;;;;11.48;6.00;;;;;;;16.15;54.48;98401.22;1744093;81;20987;-75
2021/10/02 10:27:47;;;;;;;8.63;5.55;;;;;;;16.28;54.09;98397.02;1741912;81;20985;-75
2021/10/02 10:30:22;;;;;;;8.05;5.35;;;;;;;16.91;54.94;98399.44;1750960;81;21045;-76
2021/10/02 10:33:10;;;;;;;9.30;5.60;;;;;;;18.02;53.00;98386.70;1744067;82;20963;-76
2021/10/02 10:35:43;;;;;;;9.78;5.70;;;;;;;19.30;49.41;98386.36;1743681;82;21494;-76
2021/10/02 10:38:17;;;;;;;7.67;5.33;;;;;;;20.60;47.60;98382.91;1738528;81;20991;-77
2021/10/02 10:40:45;;;;;;;8.88;5.10;;;;;;;21.74;46.71;98368.67;1735200;80;21018;-77
2021/10/02 10:43:12;;;;;;;25.32;17.87;;;;;;;22.88;40.32;98366.87;1741955;81;20961;-76
2021/10/02 10:45:40;;;;;;;7.85;6.47;;;;;;;23.83;41.73;98369.70;1751046;81;20965;-76
2021/10/02 10:48:08;;;;;;;7.00;4.33;;;;;;;24.76;39.76;98366.85;1734382;81;20980;-76
2021/10/02 10:50:39;;;;;;;7.83;4.53;;;;;;;25.56;36.88;98362.03;1741133;81;21403;-76
2021/10/02 10:53:07;;;;;;;5.55;4.05;;;;;;;26.29;36.89;98359.45;1753627;81;21054;-76
2021/10/02 10:55:55;;;;;;;6.00;4.22;;;;;;;26.88;35.62;98356.39;1750726;81;21004;-76
2021/10/02 10:58:29;;;;;;;6.12;4.47;;;;;;;27.46;31.74;98350.25;1745765;81;21442;-76
2021/10/02 11:00:58;;;;;;;7.25;3.98;;;;;;;27.78;31.00;98338.20;1756107;81;20978;-73
2021/10/02 11:03:44;;;;;;;4.85;4.35;;;;;;;28.22;29.11;98336.77;1775322;81;21003;-78
2021/10/02 11:06:15;;;;;;;7.95;4.40;;;;;;;28.12;25.41;98328.12;1732398;81;20975;-78
2021/10/02 11:09:07;;;;;;;7.30;4.30;;;;;;;28.51;28.41;98333.91;1753653;81;21040;-75
2021/10/02 11:11:54;;;;;;;7.55;4.58;;;;;;;29.08;27.96;98325.16;1746525;81;20991;-73
2021/10/02 11:14:59;;;;;;;5.25;4.62;;;;;;;29.53;29.67;98328.81;1722420;81;21004;-74
2021/10/02 11:17:38;;;;;;;7.55;5.05;;;;;;;29.88;27.18;98324.26;1714858;83;21000;-74
2021/10/02 11:20:22;;;;;;;7.85;4.67;;;;;;;29.31;23.16;98320.59;1747255;81;21010;-74
2021/10/02 11:23:43;;;;;;;8.38;4.95;;;;;;;29.78;27.00;98312.59;1714728;84;21013;-74
2021/10/02 11:26:20;;;;;;;10.20;5.08;;;;;;;30.03;24.94;98308.63;1703328;84;21456;-74
2021/10/02 11:28:51;;;;;;;5.35;4.78;;;;;;;30.35;26.29;98313.91;1743884;81;21044;-74
2021/10/02 11:31:21;;;;;;;5.47;4.37;;;;;;;30.73;26.34;98309.97;1736751;82;21043;-75
2021/10/02 11:33:55;;;;;;;6.15;4.50;;;;;;;30.68;24.99;98312.66;1738603;82;20984;-74
2021/10/02 11:36:36;;;;;;;18.77;12.53;;;;;;;30.22;24.42;98310.27;1729385;81;21004;-75
2021/10/02 11:39:24;;;;;;;7.87;5.80;;;;;;;29.71;24.90;98311.50;1736888;82;21116;-74
2021/10/02 11:42:01;;;;;;;5.92;4.70;;;;;;;29.73;24.01;98308.95;1744993;81;21028;-74
2021/10/02 11:44:40;;;;;;;7.22;4.37;;;;;;;30.18;24.54;98302.05;1721418;82;21012;-76
2021/10/02 11:47:34;;;;;;;5.35;4.28;;;;;;;30.15;23.83;98299.14;1710643;82;20992;-76
2021/10/02 11:50:19;;;;;;;5.65;4.30;;;;;;;29.00;23.86;98293.20;1721106;81;21098;-76
2021/10/02 11:52:54;;;;;;;6.78;3.80;;;;;;;27.43;25.43;98294.77;1720087;82;21444;-76
2021/10/02 11:55:44;;;;;;;4.60;4.10;;;;;;;26.48;26.45;98308.36;1750225;81;20989;-76
2021/10/02 11:58:13;;;;;;;6.42;3.80;;;;;;;25.77;27.36;98293.30;1763562;81;20985;-76
2021/10/02 12:00:58;;;;;;;6.70;4.22;;;;;;;25.21;27.60;98295.85;1745580;81;21002;-76
2021/10/02 12:03:31;;;;;;;4.33;3.92;;;;;;;24.24;27.93;98302.41;1749651;81;21038;-75
2021/10/02 12:06:00;;;;;;;5.28;3.60;;;;;;;23.59;28.32;98298.44;1774784;81;21022;-75
2021/10/02 12:08:28;;;;;;;8.35;4.53;;;;;;;22.95;29.38;98298.36;1774000;81;21041;-75
2021/10/02 12:11:00;;;;;;;6.45;4.15;;;;;;;22.39;30.55;98295.72;1745934;81;21050;-76
2021/10/02 12:13:37;;;;;;;6.72;4.20;;;;;;;22.15;30.89;98297.89;1765055;81;20993;-75
2021/10/02 12:16:13;;;;;;;7.33;4.33;;;;;;;22.23;31.11;98299.55;1764591;81;21027;-73
2021/10/02 12:19:09;;;;;;;6.28;4.15;;;;;;;22.32;31.14;98292.61;1762593;81;21040;-75
2021/10/02 12:21:41;;;;;;;6.78;3.98;;;;;;;22.27;31.65;98289.39;1750537;81;20965;-75
2021/10/02 12:24:26;;;;;;;6.80;3.92;;;;;;;21.72;32.41;98289.70;1758351;81;21095;-74
2021/10/02 12:27:06;;;;;;;5.33;3.87;;;;;;;21.72;32.41;98289.70;1722452;82;21102;-75
2021/10/02 12:29:47;;;;;;;6.50;4.00;;;;;;;21.27;31.77;98281.53;1718449;83;21489;-75
2021/10/02 12:32:21;;;;;;;6.15;3.70;;;;;;;20.83;32.70;98275.47;1734209;82;21019;-75
2021/10/02 12:34:55;;;;;;;5.83;3.72;;;;;;;20.39;33.12;98278.83;1757291;81;21001;-75
2021/10/02 12:37:26;;;;;;;6.00;4.08;;;;;;;20.31;33.80;98281.52;1764471;81;21028;-75
2021/10/02 12:40:12;;;;;;;6.67;3.85;;;;;;;20.25;33.43;98279.23;1737579;81;21015;-75